Time;durP1;ratioP1;P1;durP2;ratioP2;P2;SDS_P1;SDS_P2;PMS_P1;PMS_P2;Temp;Humidity;BMP_temperature;BMP_pressure;BME280_temperature;BME280_humidity;BME280_pressure;Samples;Min_cycle;Max_cycle;Signal;HPM_P1;HPM_P2
2020/12/16 00:00:51;;;;;;;10.13;5.82;;;5.20;99.90;;;;;;5031989;28;20541;-71
2020/12/16 00:03:17;;;;;;;9.38;4.47;;;5.20;99.90;;;;;;5051196;28;20029;-70
2020/12/16 00:05:43;;;;;;;7.40;4.20;;;5.20;99.90;;;;;;5052538;28;20035;-71
2020/12/16 00:08:09;;;;;;;9.07;3.45;;;5.20;99.90;;;;;;5036654;28;20375;-71
2020/12/16 00:10:34;;;;;;;8.43;3.22;;;5.30;99.90;;;;;;5040943;28;20030;-70
2020/12/16 00:13:00;;;;;;;7.50;4.32;;;5.30;99.90;;;;;;5044769;28;20053;-71
2020/12/16 00:15:26;;;;;;;7.78;3.80;;;5.30;99.90;;;;;;5047386;28;20064;-70
2020/12/16 00:17:52;;;;;;;7.72;4.38;;;5.30;99.90;;;;;;5048252;28;20041;-70
2020/12/16 00:20:18;;;;;;;7.03;3.65;;;5.30;99.90;;;;;;5033183;28;20483;-70
2020/12/16 00:22:43;;;;;;;7.28;3.78;;;5.30;99.90;;;;;;5032845;28;20075;-71
2020/12/16 00:25:11;;;;;;;8.40;4.10;;;5.30;99.90;;;;;;5031916;28;20033;-70
2020/12/16 00:27:37;;;;;;;6.35;3.85;;;5.20;99.90;;;;;;5033749;28;22246;-70
2020/12/16 00:30:05;;;;;;;6.25;3.30;;;5.20;99.90;;;;;;5034645;28;20246;-70
2020/12/16 00:32:31;;;;;;;7.93;3.72;;;5.40;99.90;;;;;;5032544;28;20033;-70
2020/12/16 00:34:57;;;;;;;7.93;4.03;;;5.50;99.90;;;;;;5052293;28;20020;-70
2020/12/16 00:37:22;;;;;;;6.28;4.40;;;5.60;99.90;;;;;;5051398;28;20032;-71
2020/12/16 00:39:48;;;;;;;9.68;4.25;;;5.70;99.90;;;;;;5041761;28;20029;-70
2020/12/16 00:42:14;;;;;;;6.57;3.03;;;5.50;99.90;;;;;;5038757;28;20035;-70
2020/12/16 00:44:39;;;;;;;6.10;3.60;;;5.40;99.90;;;;;;5050687;28;20021;-70
2020/12/16 00:47:05;;;;;;;7.22;3.70;;;5.30;99.90;;;;;;5031780;28;20485;-70
2020/12/16 00:49:31;;;;;;;9.00;3.65;;;5.20;99.90;;;;;;5031070;28;20399;-70
2020/12/16 00:51:57;;;;;;;9.88;3.65;;;5.20;99.90;;;;;;5039450;28;20533;-71
2020/12/16 00:54:22;;;;;;;8.40;3.92;;;5.10;99.90;;;;;;5031890;28;20029;-70
2020/12/16 00:56:48;;;;;;;7.70;3.80;;;5.30;99.90;;;;;;5039048;28;20025;-70
2020/12/16 00:59:14;;;;;;;7.05;4.05;;;5.20;99.90;;;;;;5038419;28;20500;-71
2020/12/16 01:01:39;;;;;;;5.55;3.65;;;5.40;99.90;;;;;;5032665;28;20030;-70
2020/12/16 01:04:05;;;;;;;8.73;4.13;;;5.40;99.90;;;;;;5042076;28;20037;-70
2020/12/16 01:06:31;;;;;;;8.55;3.65;;;5.30;99.90;;;;;;5049423;28;20060;-70
2020/12/16 01:08:56;;;;;;;6.90;3.20;;;5.30;99.90;;;;;;5050354;28;20021;-71
2020/12/16 01:11:22;;;;;;;9.70;4.80;;;5.30;99.90;;;;;;5050301;28;20021;-70
2020/12/16 01:13:48;;;;;;;10.00;5.13;;;5.40;99.90;;;;;;5048465;28;20116;-70
2020/12/16 01:16:13;;;;;;;6.45;3.35;;;5.50;99.90;;;;;;5048903;28;20395;-71
2020/12/16 01:18:39;;;;;;;8.95;4.75;;;5.50;99.90;;;;;;5038310;28;20017;-71
2020/12/16 01:21:05;;;;;;;7.20;4.63;;;5.40;99.90;;;;;;5045158;28;20033;-70
2020/12/16 01:23:30;;;;;;;8.43;3.70;;;5.30;99.90;;;;;;5042433;28;20839;-70
2020/12/16 01:25:56;;;;;;;7.80;3.97;;;5.30;99.90;;;;;;5029639;28;20444;-70
2020/12/16 01:28:22;;;;;;;6.30;3.45;;;5.30;99.90;;;;;;5028523;28;20033;-70
2020/12/16 01:30:47;;;;;;;6.68;3.75;;;5.30;99.90;;;;;;5029703;28;20109;-70
2020/12/16 01:33:13;;;;;;;7.45;3.45;;;5.40;99.90;;;;;;5035456;28;20044;-71
2020/12/16 01:35:39;;;;;;;8.25;3.78;;;5.20;99.90;;;;;;5029686;28;20033;-70
2020/12/16 01:38:05;;;;;;;5.93;3.20;;;5.30;99.90;;;;;;5046462;28;20040;-70
2020/12/16 01:40:30;;;;;;;5.72;3.30;;;5.20;99.90;;;;;;5038680;28;20025;-70
2020/12/16 01:42:56;;;;;;;8.48;3.55;;;5.20;99.90;;;;;;5045451;28;20033;-70
2020/12/16 01:45:23;;;;;;;7.75;3.50;;;5.20;99.90;;;;;;5034668;28;20030;-70
2020/12/16 01:47:50;;;;;;;5.72;2.92;;;5.20;99.90;;;;;;5048743;28;20037;-71
2020/12/16 01:50:16;;;;;;;6.20;3.92;;;5.20;99.90;;;;;;5042073;28;20021;-70
2020/12/16 01:52:43;;;;;;;7.90;3.83;;;5.20;99.90;;;;;;5032474;28;20021;-71
2020/12/16 01:55:11;;;;;;;8.30;4.22;;;5.10;99.90;;;;;;5029980;28;20026;-70
2020/12/16 01:57:44;;;;;;;9.18;3.85;;;5.30;99.90;;;;;;5041499;28;20036;-70
2020/12/16 02:00:11;;;;;;;9.63;4.88;;;5.30;99.90;;;;;;5033580;28;20065;-70
2020/12/16 02:02:51;;;;;;;7.85;3.65;;;5.20;99.90;;;;;;5045922;28;20028;-70
2020/12/16 02:05:20;;;;;;;6.05;2.80;;;5.20;99.90;;;;;;5031130;28;20038;-70
2020/12/16 02:07:46;;;;;;;6.72;3.20;;;5.10;99.90;;;;;;5037256;28;20056;-70
2020/12/16 02:10:13;;;;;;;6.78;3.20;;;5.10;99.90;;;;;;5034836;28;20045;-71
2020/12/16 02:12:39;;;;;;;5.75;3.25;;;5.10;99.90;;;;;;5033869;28;20033;-71
2020/12/16 02:15:06;;;;;;;6.45;3.55;;;5.10;99.90;;;;;;5033264;28;20028;-71
2020/12/16 02:17:32;;;;;;;12.02;4.97;;;5.10;99.90;;;;;;5040446;28;20057;-70
2020/12/16 02:20:01;;;;;;;9.18;4.30;;;5.10;99.90;;;;;;5030700;28;20052;-71
2020/12/16 02:22:27;;;;;;;8.05;3.53;;;5.10;99.90;;;;;;5032526;28;20109;-70
2020/12/16 02:25:07;;;;;;;6.47;3.35;;;5.10;99.90;;;;;;5039784;28;20557;-70
2020/12/16 02:27:37;;;;;;;5.88;3.00;;;5.10;99.90;;;;;;5033394;28;20033;-70
2020/12/16 02:30:05;;;;;;;6.07;3.38;;;5.10;99.90;;;;;;5049209;28;20112;-70
2020/12/16 02:32:30;;;;;;;9.07;3.40;;;5.10;99.90;;;;;;5048629;28;20080;-71
2020/12/16 02:34:57;;;;;;;8.57;3.90;;;5.10;99.90;;;;;;5048096;28;20495;-70
2020/12/16 02:37:24;;;;;;;7.68;3.83;;;5.10;99.90;;;;;;5052953;28;20548;-70
2020/12/16 02:39:50;;;;;;;8.90;4.78;;;5.00;99.90;;;;;;5047973;28;20029;-70
2020/12/16 02:42:22;;;;;;;5.88;3.38;;;5.00;99.90;;;;;;5034191;28;20022;-71
2020/12/16 02:44:47;;;;;;;5.30;3.38;;;5.00;99.90;;;;;;5039823;28;20035;-70
2020/12/16 02:47:13;;;;;;;7.18;3.20;;;5.00;99.90;;;;;;5041048;28;20473;-70
2020/12/16 02:49:39;;;;;;;7.10;3.80;;;5.10;99.90;;;;;;5052396;28;20356;-71
2020/12/16 02:52:04;;;;;;;10.30;5.13;;;5.10;99.90;;;;;;5046589;28;20070;-70
2020/12/16 02:54:30;;;;;;;10.23;5.18;;;5.00;99.90;;;;;;5044925;28;20499;-70
2020/12/16 02:56:55;;;;;;;9.23;5.63;;;5.00;99.90;;;;;;5034087;28;20391;-70
2020/12/16 02:59:25;;;;;;;9.18;5.50;;;5.00;99.90;;;;;;5034431;28;20112;-70
2020/12/16 03:01:53;;;;;;;8.43;5.30;;;5.00;99.90;;;;;;5040182;28;20495;-70
2020/12/16 03:04:20;;;;;;;9.05;4.90;;;5.00;99.90;;;;;;5053573;28;20104;-70
2020/12/16 03:06:49;;;;;;;7.13;4.22;;;5.00;99.90;;;;;;5052718;28;20025;-70
2020/12/16 03:09:16;;;;;;;5.68;3.25;;;4.90;99.90;;;;;;5036043;28;20565;-70
2020/12/16 03:11:42;;;;;;;9.60;5.00;;;5.00;99.90;;;;;;5033847;28;20034;-71
2020/12/16 03:14:08;;;;;;;11.60;5.28;;;4.80;99.90;;;;;;5048519;28;20112;-70
2020/12/16 03:16:34;;;;;;;10.32;5.55;;;4.80;99.90;;;;;;5035536;28;20061;-70
2020/12/16 03:19:00;;;;;;;10.75;5.25;;;4.90;99.90;;;;;;5047417;28;20025;-70
2020/12/16 03:21:26;;;;;;;10.32;5.70;;;5.00;99.90;;;;;;5039904;28;20499;-71
2020/12/16 03:23:53;;;;;;;10.13;5.57;;;4.90;99.90;;;;;;5035812;28;20057;-70
2020/12/16 03:26:19;;;;;;;11.32;5.70;;;4.90;99.90;;;;;;5035219;28;20033;-70
2020/12/16 03:28:45;;;;;;;11.30;5.90;;;4.80;99.90;;;;;;5038812;28;20040;-70
2020/12/16 03:31:12;;;;;;;9.70;4.63;;;4.80;99.90;;;;;;5052094;28;20387;-70
2020/12/16 03:33:43;;;;;;;22.20;6.20;;;4.90;99.90;;;;;;5038335;28;20065;-70
2020/12/16 03:36:16;;;;;;;7.43;4.40;;;4.90;99.90;;;;;;5033321;28;20384;-70
2020/12/16 03:38:43;;;;;;;6.82;4.50;;;5.00;99.90;;;;;;5045612;28;20033;-70
2020/12/16 03:41:09;;;;;;;10.18;5.00;;;5.00;99.90;;;;;;5048901;28;20159;-70
2020/12/16 03:43:35;;;;;;;7.75;4.60;;;5.00;99.90;;;;;;5042195;28;20036;-71
2020/12/16 03:46:01;;;;;;;12.80;4.93;;;5.00;99.90;;;;;;5033382;28;20053;-70
2020/12/16 03:48:26;;;;;;;9.88;5.68;;;5.00;99.90;;;;;;5036270;28;20115;-71
2020/12/16 03:50:52;;;;;;;8.18;5.00;;;5.00;99.90;;;;;;5045036;28;20033;-70
2020/12/16 03:53:18;;;;;;;9.30;4.45;;;5.10;99.90;;;;;;5033020;28;20353;-71
2020/12/16 03:55:43;;;;;;;7.32;4.25;;;5.10;99.90;;;;;;5050847;28;20091;-70
2020/12/16 03:58:09;;;;;;;8.73;4.25;;;5.00;99.90;;;;;;5033267;28;20029;-71
2020/12/16 04:00:35;;;;;;;9.10;4.13;;;5.00;99.90;;;;;;5032138;28;20025;-70
2020/12/16 04:03:00;;;;;;;5.75;3.50;;;5.00;99.90;;;;;;5038758;28;20040;-70
2020/12/16 04:05:26;;;;;;;9.00;4.13;;;5.00;99.90;;;;;;5025179;28;20064;-70
2020/12/16 04:07:52;;;;;;;9.18;3.85;;;4.90;99.90;;;;;;5035124;28;20101;-70
2020/12/16 04:10:17;;;;;;;7.55;4.05;;;4.90;99.90;;;;;;5044926;28;20029;-70
2020/12/16 04:12:43;;;;;;;7.22;3.83;;;4.80;99.90;;;;;;5041573;28;20029;-70
2020/12/16 04:15:09;;;;;;;7.40;3.78;;;4.90;99.90;;;;;;5023814;28;20391;-70
2020/12/16 04:17:35;;;;;;;5.47;3.35;;;5.00;99.90;;;;;;5035825;28;20135;-70
2020/12/16 04:20:03;;;;;;;6.22;3.38;;;5.00;99.90;;;;;;5028276;28;20021;-70
2020/12/16 04:22:29;;;;;;;5.75;2.75;;;5.00;99.90;;;;;;5027878;28;20025;-70
2020/12/16 04:24:56;;;;;;;5.25;2.97;;;5.10;99.90;;;;;;5030892;28;20026;-70
2020/12/16 04:27:22;;;;;;;5.80;3.25;;;5.20;99.90;;;;;;5036035;28;20045;-70
2020/12/16 04:29:47;;;;;;;6.60;3.00;;;5.30;99.90;;;;;;5026187;28;20030;-70
2020/12/16 04:32:16;;;;;;;7.40;4.22;;;5.30;99.90;;;;;;5033627;28;20056;-70
2020/12/16 04:34:41;;;;;;;12.00;7.45;;;5.20;99.90;;;;;;5025055;28;20025;-70
2020/12/16 04:37:07;;;;;;;9.15;5.32;;;5.20;99.90;;;;;;5025971;28;20110;-70
2020/12/16 04:39:33;;;;;;;9.10;5.35;;;5.20;99.90;;;;;;5043863;28;20373;-70
2020/12/16 04:41:59;;;;;;;7.15;3.72;;;5.20;99.90;;;;;;5039902;28;20151;-70
2020/12/16 04:44:25;;;;;;;6.10;3.70;;;5.10;99.90;;;;;;5039866;28;20051;-70
2020/12/16 04:46:51;;;;;;;6.28;3.80;;;5.10;99.90;;;;;;5025591;28;20104;-70
2020/12/16 04:49:17;;;;;;;6.75;3.45;;;5.10;99.90;;;;;;5026522;28;20049;-70
2020/12/16 04:51:44;;;;;;;10.13;3.72;;;5.10;99.90;;;;;;5025268;28;20047;-70
2020/12/16 04:54:11;;;;;;;10.60;6.72;;;5.10;99.90;;;;;;5034279;28;20025;-70
2020/12/16 04:56:37;;;;;;;14.70;7.32;;;5.10;99.90;;;;;;5023978;28;20036;-70
2020/12/16 04:59:06;;;;;;;12.82;7.47;;;4.90;99.90;;;;;;5036512;28;20715;-70
2020/12/16 05:01:37;;;;;;;13.15;5.55;;;4.90;99.90;;;;;;5030767;28;20028;-70
2020/12/16 05:04:03;;;;;;;8.90;3.88;;;5.00;99.90;;;;;;5044175;28;20124;-70
2020/12/16 05:06:37;;;;;;;9.95;4.88;;;4.80;99.90;;;;;;5042999;28;20115;-70
2020/12/16 05:09:10;;;;;;;8.00;3.95;;;4.80;99.90;;;;;;5036891;28;21398;-70
2020/12/16 05:11:50;;;;;;;8.50;4.85;;;4.80;99.90;;;;;;5028722;28;20040;-70
2020/12/16 05:14:16;;;;;;;9.15;4.32;;;4.90;99.90;;;;;;5027199;28;20428;-70
2020/12/16 05:17:01;;;;;;;8.48;4.30;;;4.90;99.90;;;;;;5024688;28;20048;-70
2020/12/16 05:19:48;;;;;;;7.55;3.55;;;4.80;99.90;;;;;;5029965;28;20678;-70
2020/12/16 05:22:31;;;;;;;7.57;4.35;;;4.90;99.90;;;;;;5023131;28;20041;-70
2020/12/16 05:24:59;;;;;;;8.77;4.57;;;4.90;99.90;;;;;;5025298;28;20033;-71
2020/12/16 05:27:32;;;;;;;9.23;3.90;;;4.90;99.90;;;;;;5032286;28;20028;-70
2020/12/16 05:30:00;;;;;;;6.22;3.80;;;5.00;99.90;;;;;;5030620;28;20064;-70
2020/12/16 05:32:36;;;;;;;8.32;3.50;;;5.00;99.90;;;;;;5031114;28;20464;-70
2020/12/16 05:35:26;;;;;;;5.20;2.67;;;5.00;99.90;;;;;;5022447;28;20033;-70
2020/12/16 05:38:08;;;;;;;6.15;3.03;;;5.00;99.90;;;;;;5024161;28;20143;-70
2020/12/16 05:40:37;;;;;;;9.70;4.88;;;5.00;99.90;;;;;;5029411;28;20029;-70
2020/12/16 05:43:04;;;;;;;6.75;4.20;;;5.00;99.90;;;;;;5032438;28;20130;-70
2020/12/16 05:45:31;;;;;;;7.95;3.83;;;5.00;99.90;;;;;;5032780;28;20029;-70
2020/12/16 05:48:08;;;;;;;5.10;2.80;;;4.90;99.90;;;;;;5039889;28;20122;-70
2020/12/16 05:50:53;;;;;;;7.15;3.75;;;4.90;99.90;;;;;;5034285;28;20052;-70
2020/12/16 05:53:20;;;;;;;;;;;4.90;99.90;;;;;;5033245;28;20477;-70
2020/12/16 05:56:04;;;;;;;7.22;3.58;;;5.00;99.90;;;;;;5039700;28;19913;-70
2020/12/16 05:58:31;;;;;;;6.45;3.65;;;5.00;99.90;;;;;;5034792;28;20076;-70
2020/12/16 06:00:59;;;;;;;7.00;3.58;;;5.10;99.90;;;;;;5036479;28;20083;-72
2020/12/16 06:03:32;;;;;;;5.65;3.65;;;5.00;99.90;;;;;;5031972;28;20030;-70
2020/12/16 06:06:06;;;;;;;8.48;3.30;;;5.00;99.90;;;;;;5022259;28;20431;-70
2020/12/16 06:08:40;;;;;;;7.63;3.88;;;5.00;99.90;;;;;;5026028;28;20121;-69
2020/12/16 06:11:09;;;;;;;8.13;3.85;;;5.10;99.90;;;;;;5037440;28;20026;-70
2020/12/16 06:13:37;;;;;;;9.43;4.20;;;5.10;99.90;;;;;;5030753;28;20072;-69
2020/12/16 06:16:09;;;;;;;8.93;5.40;;;5.20;99.90;;;;;;5044376;28;20049;-69
2020/12/16 06:18:38;;;;;;;12.05;7.55;;;5.30;99.90;;;;;;5043360;28;20025;-69
2020/12/16 06:21:08;;;;;;;10.10;4.88;;;5.10;99.90;;;;;;5027576;28;20133;-69
2020/12/16 06:23:38;;;;;;;8.38;4.50;;;5.00;99.90;;;;;;5027134;28;20522;-69
2020/12/16 06:26:07;;;;;;;23.70;11.80;;;5.00;99.90;;;;;;5027228;28;20501;-69
2020/12/16 06:28:33;;;;;;;10.80;6.88;;;4.90;99.90;;;;;;5033328;28;20049;-69
2020/12/16 06:31:08;;;;;;;12.00;4.68;;;4.90;99.90;;;;;;5026593;28;20063;-69
2020/12/16 06:34:08;;;;;;;6.88;4.20;;;4.90;99.90;;;;;;5038249;28;20071;-69
2020/12/16 06:36:38;;;;;;;6.85;4.10;;;4.90;99.90;;;;;;5033642;28;20131;-69
2020/12/16 06:39:18;;;;;;;9.77;5.13;;;4.90;99.90;;;;;;5047015;28;20105;-69
2020/12/16 06:41:56;;;;;;;8.88;4.53;;;4.90;99.90;;;;;;5046035;28;20033;-69
2020/12/16 06:44:21;;;;;;;9.30;4.55;;;4.90;99.90;;;;;;5035396;28;20055;-69
2020/12/16 06:46:52;;;;;;;8.07;5.13;;;4.90;99.90;;;;;;5027094;28;20037;-69
2020/12/16 06:49:24;;;;;;;8.38;4.60;;;4.90;99.90;;;;;;5026284;28;20563;-69
2020/12/16 06:51:58;;;;;;;9.95;5.63;;;4.90;99.90;;;;;;5025712;28;20033;-69
2020/12/16 06:54:25;;;;;;;;;;;4.90;99.90;;;;;;5027153;28;20520;-69
2020/12/16 06:57:19;;;;;;;12.20;6.00;;;4.90;99.90;;;;;;5026205;28;19909;-69
2020/12/16 06:59:53;;;;;;;12.37;6.77;;;4.80;99.90;;;;;;5026901;28;20565;-69
2020/12/16 07:02:34;;;;;;;14.55;7.65;;;4.80;99.90;;;;;;5033499;28;20290;-69
2020/12/16 07:05:02;;;;;;;15.57;8.25;;;4.70;99.90;;;;;;5038417;28;20079;-69
2020/12/16 07:07:49;;;;;;;12.82;6.15;;;4.70;99.90;;;;;;5036522;28;20506;-69
2020/12/16 07:10:33;;;;;;;9.40;5.07;;;4.70;99.90;;;;;;5036136;28;20048;-69
2020/12/16 07:13:28;;;;;;;19.75;9.00;;;4.80;99.90;;;;;;5031367;28;20033;-69
2020/12/16 07:16:07;;;;;;;140.80;75.35;;;4.90;99.90;;;;;;5037812;28;20037;-69
2020/12/16 07:18:38;;;;;;;153.65;87.07;;;5.00;99.90;;;;;;5041571;28;20074;-69
2020/12/16 07:21:07;;;;;;;117.25;60.30;;;5.00;99.90;;;;;;5024379;28;20542;-69
2020/12/16 07:23:53;;;;;;;72.32;39.50;;;5.10;99.90;;;;;;5027117;28;20530;-69
2020/12/16 07:26:21;;;;;;;39.03;23.50;;;5.00;99.90;;;;;;5025904;28;20021;-69
2020/12/16 07:28:47;;;;;;;24.08;13.80;;;5.10;99.90;;;;;;5037720;28;20041;-70
2020/12/16 07:31:14;;;;;;;12.48;7.70;;;5.10;99.90;;;;;;5046375;28;20033;-70
2020/12/16 07:33:40;;;;;;;9.27;6.05;;;5.10;99.90;;;;;;5032018;28;20053;-69
2020/12/16 07:36:07;;;;;;;10.23;5.90;;;5.10;99.90;;;;;;5025800;28;20122;-70
2020/12/16 07:38:33;;;;;;;9.85;5.30;;;5.10;99.90;;;;;;5045865;28;20257;-69
2020/12/16 07:40:59;;;;;;;10.85;5.97;;;5.10;99.90;;;;;;5046705;28;20076;-69
2020/12/16 07:43:25;;;;;;;7.40;5.10;;;5.10;99.90;;;;;;5027996;28;20025;-69
2020/12/16 07:46:08;;;;;;;10.05;5.35;;;5.20;99.90;;;;;;5036687;28;20459;-70
2020/12/16 07:48:34;;;;;;;13.32;7.50;;;5.20;99.90;;;;;;5036195;28;20041;-70
2020/12/16 07:51:00;;;;;;;17.70;10.23;;;5.20;99.90;;;;;;5025028;28;20022;-70
2020/12/16 07:53:26;;;;;;;18.98;11.25;;;5.20;99.90;;;;;;5031740;28;20055;-70
2020/12/16 07:56:02;;;;;;;8.75;5.00;;;5.20;99.90;;;;;;5035997;28;20037;-70
2020/12/16 07:58:32;;;;;;;7.78;4.70;;;5.20;99.90;;;;;;5034867;28;20035;-70
2020/12/16 08:01:11;;;;;;;8.13;5.15;;;5.30;99.90;;;;;;5044894;28;20029;-70
2020/12/16 08:03:38;;;;;;;10.75;5.65;;;5.30;99.90;;;;;;5029183;28;20033;-70
2020/12/16 08:06:05;;;;;;;16.23;8.43;;;5.40;99.90;;;;;;5022404;28;20112;-69
2020/12/16 08:08:31;;;;;;;12.10;7.35;;;5.40;99.90;;;;;;5032713;28;20127;-70
2020/12/16 08:10:57;;;;;;;12.45;7.60;;;5.30;99.90;;;;;;5043070;28;20029;-71
2020/12/16 08:13:25;;;;;;;11.82;5.90;;;5.10;99.90;;;;;;5040610;28;20032;-71
2020/12/16 08:15:51;;;;;;;8.82;5.63;;;5.00;99.90;;;;;;5022492;28;20105;-70
2020/12/16 08:18:19;;;;;;;12.70;6.35;;;5.00;99.90;;;;;;5039635;28;20702;-70
2020/12/16 08:20:46;;;;;;;10.13;6.28;;;5.00;99.90;;;;;;5044412;28;20025;-71
2020/12/16 08:23:14;;;;;;;11.93;6.70;;;5.10;99.90;;;;;;5028083;28;20041;-70
2020/12/16 08:25:41;;;;;;;9.20;6.00;;;5.10;99.90;;;;;;5024324;28;20621;-70
2020/12/16 08:28:08;;;;;;;9.85;5.82;;;5.20;99.90;;;;;;5026453;28;20034;-70
2020/12/16 08:30:37;;;;;;;73.82;39.58;;;5.30;99.90;;;;;;5023720;28;20660;-70
2020/12/16 08:33:16;;;;;;;448.15;214.77;;;5.30;99.90;;;;;;5024284;28;20025;-70
2020/12/16 08:35:53;;;;;;;170.80;81.55;;;5.30;99.90;;;;;;5024207;28;20079;-70
2020/12/16 08:38:29;;;;;;;39.03;21.55;;;5.30;99.90;;;;;;5023800;28;20687;-71
2020/12/16 08:40:56;;;;;;;31.40;16.55;;;5.30;99.90;;;;;;5024196;28;20032;-70
2020/12/16 08:43:24;;;;;;;19.85;10.70;;;5.30;99.90;;;;;;5025013;28;20108;-70
2020/12/16 08:46:09;;;;;;;18.15;10.50;;;5.30;99.90;;;;;;5042346;28;20547;-70
2020/12/16 08:48:50;;;;;;;15.70;8.82;;;5.40;99.90;;;;;;5030509;28;20038;-70
2020/12/16 08:51:32;;;;;;;14.85;7.20;;;5.50;99.90;;;;;;5024665;28;20976;-70
2020/12/16 08:54:09;;;;;;;16.13;7.50;;;5.50;99.90;;;;;;5040177;28;20077;-70
2020/12/16 08:56:43;;;;;;;13.43;8.30;;;5.40;99.90;;;;;;5037118;28;20029;-70
2020/12/16 08:59:09;;;;;;;;;;;5.50;99.90;;;;;;5039504;28;20029;-70
2020/12/16 09:01:37;;;;;;;13.60;8.23;;;5.50;99.90;;;;;;5024375;28;19962;-71
2020/12/16 09:04:07;;;;;;;12.73;7.90;;;5.50;99.90;;;;;;5031957;28;20029;-70
2020/12/16 09:06:33;;;;;;;14.55;6.43;;;5.50;99.90;;;;;;5041846;28;20036;-70
2020/12/16 09:08:58;;;;;;;10.70;6.15;;;5.50;99.90;;;;;;5036856;28;20037;-70
2020/12/16 09:11:24;;;;;;;12.13;6.28;;;5.60;99.90;;;;;;5026786;28;20059;-70
2020/12/16 09:13:57;;;;;;;15.10;7.47;;;5.70;99.90;;;;;;5038017;28;20037;-70
2020/12/16 09:16:24;;;;;;;11.23;7.53;;;5.70;99.90;;;;;;5024044;28;20045;-70
2020/12/16 09:18:51;;;;;;;11.48;7.53;;;5.80;99.90;;;;;;5035661;28;20029;-70
2020/12/16 09:21:28;;;;;;;13.18;8.52;;;5.80;99.90;;;;;;5040572;28;20062;-70
2020/12/16 09:23:54;;;;;;;20.05;10.00;;;5.70;99.90;;;;;;5043896;28;20025;-70
2020/12/16 09:26:31;;;;;;;18.17;10.27;;;5.60;99.90;;;;;;5031643;28;20094;-70
2020/12/16 09:28:57;;;;;;;20.95;11.88;;;5.50;99.90;;;;;;5031382;28;20407;-70
2020/12/16 09:31:23;;;;;;;17.95;11.75;;;5.50;99.90;;;;;;5022891;28;20025;-70
2020/12/16 09:33:59;;;;;;;21.35;11.70;;;5.60;99.90;;;;;;5023888;28;20025;-70
2020/12/16 09:36:28;;;;;;;22.15;13.98;;;5.60;99.90;;;;;;5024872;28;20468;-70
2020/12/16 09:38:58;;;;;;;18.65;11.40;;;5.70;99.90;;;;;;5028641;28;20571;-70
2020/12/16 09:41:24;;;;;;;16.92;10.07;;;5.80;99.90;;;;;;5022505;28;20025;-70
2020/12/16 09:43:50;;;;;;;16.30;11.05;;;5.90;99.90;;;;;;5023123;28;20384;-70
2020/12/16 09:46:18;;;;;;;20.75;10.93;;;6.00;99.90;;;;;;5022519;28;20099;-70
2020/12/16 09:48:49;;;;;;;20.02;11.02;;;6.00;99.90;;;;;;5023841;28;20049;-70
2020/12/16 09:51:19;;;;;;;18.00;11.05;;;6.10;99.90;;;;;;5023598;28;20037;-70
2020/12/16 09:53:46;;;;;;;19.60;11.45;;;6.10;99.90;;;;;;5023784;28;20025;-70
2020/12/16 09:56:22;;;;;;;17.50;10.88;;;6.20;99.90;;;;;;5025582;28;20036;-70
2020/12/16 09:58:48;;;;;;;12.75;9.85;;;6.40;99.90;;;;;;5043312;28;20529;-69
2020/12/16 10:01:14;;;;;;;13.45;9.15;;;6.40;99.90;;;;;;5039487;28;20032;-69
2020/12/16 10:03:40;;;;;;;18.65;10.27;;;6.40;99.90;;;;;;5037858;28;20033;-69
2020/12/16 10:06:11;;;;;;;16.45;10.82;;;6.30;99.90;;;;;;5020786;28;20025;-69
2020/12/16 10:08:37;;;;;;;27.88;20.88;;;6.20;99.90;;;;;;5021401;28;20520;-69
2020/12/16 10:11:03;;;;;;;37.08;28.17;;;6.20;99.90;;;;;;5021901;28;20064;-69
2020/12/16 10:13:29;;;;;;;28.17;18.15;;;6.20;99.90;;;;;;5020533;28;20104;-69
2020/12/16 10:15:55;;;;;;;89.45;51.45;;;6.30;99.90;;;;;;5021724;28;20038;-69
2020/12/16 10:18:21;;;;;;;42.85;25.92;;;6.30;99.90;;;;;;5029524;28;20528;-69
2020/12/16 10:20:46;;;;;;;20.92;12.75;;;6.40;99.90;;;;;;5023586;28;20033;-69
2020/12/16 10:23:12;;;;;;;29.40;22.67;;;6.50;99.90;;;;;;5023661;28;20132;-70
2020/12/16 10:25:38;;;;;;;39.55;29.60;;;6.50;99.90;;;;;;5037279;28;20029;-69
2020/12/16 10:28:09;;;;;;;22.25;18.42;;;6.50;99.90;;;;;;5038101;28;20590;-69
2020/12/16 10:30:35;;;;;;;24.35;17.60;;;6.60;99.90;;;;;;5024069;28;20120;-69
2020/12/16 10:33:01;;;;;;;16.60;9.88;;;6.70;99.90;;;;;;5029899;28;20100;-69
2020/12/16 10:35:27;;;;;;;17.92;10.70;;;6.60;99.90;;;;;;5043428;28;20033;-69
2020/12/16 10:37:53;;;;;;;17.67;9.48;;;6.50;99.90;;;;;;5042554;28;20063;-70
2020/12/16 10:40:19;;;;;;;15.13;10.20;;;6.50;99.90;;;;;;5025651;28;20018;-70
2020/12/16 10:42:45;;;;;;;18.02;9.77;;;6.50;99.90;;;;;;5022742;28;20052;-69
2020/12/16 10:45:11;;;;;;;20.52;12.90;;;6.50;99.90;;;;;;5035243;28;20033;-69
2020/12/16 10:47:36;;;;;;;13.00;8.52;;;6.50;99.90;;;;;;5043053;28;20083;-69
2020/12/16 10:50:03;;;;;;;12.57;8.70;;;6.50;99.90;;;;;;5041523;28;20041;-69
2020/12/16 10:52:29;;;;;;;13.13;7.88;;;6.50;99.90;;;;;;5039252;28;20029;-70
2020/12/16 10:54:55;;;;;;;14.25;7.95;;;6.50;99.90;;;;;;5033326;28;20367;-69
2020/12/16 10:57:21;;;;;;;14.13;8.75;;;6.50;99.90;;;;;;5045701;28;20072;-69
2020/12/16 10:59:47;;;;;;;13.38;8.00;;;6.50;99.90;;;;;;5047283;28;20080;-70
2020/12/16 11:02:14;;;;;;;12.95;7.45;;;6.50;99.90;;;;;;5026846;28;20049;-70
2020/12/16 11:04:39;;;;;;;13.60;8.05;;;6.50;99.90;;;;;;5037502;28;20037;-69
2020/12/16 11:07:05;;;;;;;12.40;8.20;;;6.60;99.90;;;;;;5026381;28;20096;-69
2020/12/16 11:09:31;;;;;;;11.68;8.25;;;6.60;99.90;;;;;;5044940;28;20037;-69
2020/12/16 11:11:57;;;;;;;13.02;8.57;;;6.60;99.90;;;;;;5046382;28;20100;-70
2020/12/16 11:14:25;;;;;;;12.90;8.77;;;6.60;99.90;;;;;;5032072;28;20053;-69
2020/12/16 11:16:51;;;;;;;17.20;8.90;;;6.70;99.90;;;;;;5029214;28;20053;-69
2020/12/16 11:19:17;;;;;;;12.35;8.07;;;6.70;99.90;;;;;;5046377;28;20040;-69
2020/12/16 11:21:46;;;;;;;13.55;9.10;;;6.70;99.90;;;;;;5044325;28;20101;-69
2020/12/16 11:24:14;;;;;;;12.95;7.60;;;6.70;99.90;;;;;;5025271;28;20026;-69
2020/12/16 11:26:46;;;;;;;11.77;7.78;;;6.80;99.90;;;;;;5025609;28;20031;-69
2020/12/16 11:29:13;;;;;;;15.43;9.30;;;6.80;99.90;;;;;;5041898;28;20032;-69
2020/12/16 11:31:47;;;;;;;14.52;8.95;;;6.90;99.90;;;;;;5046263;28;20694;-69
2020/12/16 11:34:15;;;;;;;14.75;7.95;;;6.90;99.90;;;;;;5028376;28;20026;-70
2020/12/16 11:36:43;;;;;;;17.27;10.00;;;6.90;99.90;;;;;;5028405;28;20553;-70
2020/12/16 11:39:10;;;;;;;13.38;8.52;;;7.00;99.90;;;;;;5031419;28;20533;-69
2020/12/16 11:41:40;;;;;;;16.80;9.98;;;7.00;99.90;;;;;;5025703;28;20128;-70
2020/12/16 11:44:05;;;;;;;14.80;8.40;;;6.90;99.90;;;;;;5025147;28;20590;-70
2020/12/16 11:46:32;;;;;;;16.20;9.95;;;7.00;99.90;;;;;;5028633;28;20042;-69
2020/12/16 11:48:58;;;;;;;13.15;7.78;;;7.00;99.90;;;;;;5026291;28;20139;-70
2020/12/16 11:51:24;;;;;;;12.45;8.55;;;7.10;99.90;;;;;;5025626;28;20026;-69
2020/12/16 11:53:50;;;;;;;11.48;7.97;;;7.10;99.90;;;;;;5023662;28;20470;-69
2020/12/16 11:56:16;;;;;;;12.30;8.40;;;7.10;99.90;;;;;;5025961;28;20033;-69
2020/12/16 11:58:41;;;;;;;11.38;7.68;;;7.00;99.90;;;;;;5029739;28;20387;-69
2020/12/16 12:01:11;;;;;;;11.55;7.18;;;7.10;99.90;;;;;;5040664;28;20136;-69
2020/12/16 12:03:37;;;;;;;12.85;8.35;;;7.10;99.90;;;;;;5028237;28;20040;-69
2020/12/16 12:06:03;;;;;;;12.20;6.55;;;7.00;99.90;;;;;;5031446;28;20044;-70
2020/12/16 12:08:29;;;;;;;13.02;8.07;;;7.00;99.90;;;;;;5043878;28;20033;-70
2020/12/16 12:10:54;;;;;;;13.50;7.10;;;7.00;99.90;;;;;;5035140;28;20084;-70
2020/12/16 12:13:20;;;;;;;17.23;10.23;;;7.00;99.90;;;;;;5023595;28;20545;-69
2020/12/16 12:15:46;;;;;;;86.25;60.10;;;7.00;99.90;;;;;;5023772;28;20630;-70
2020/12/16 12:18:11;;;;;;;26.40;19.75;;;7.10;99.90;;;;;;5022407;28;20029;-69
2020/12/16 12:20:37;;;;;;;12.60;8.80;;;7.10;99.90;;;;;;5029618;28;20036;-69
2020/12/16 12:23:03;;;;;;;13.70;9.40;;;7.10;99.90;;;;;;5044816;28;20088;-69
2020/12/16 12:25:28;;;;;;;13.68;8.70;;;7.20;99.90;;;;;;5044016;28;20438;-69
2020/12/16 12:27:54;;;;;;;10.52;7.53;;;7.30;99.90;;;;;;5037326;28;20025;-69
2020/12/16 12:30:20;;;;;;;13.45;8.23;;;7.30;99.90;;;;;;5025055;28;20083;-69
2020/12/16 12:32:45;;;;;;;12.10;7.70;;;7.20;99.90;;;;;;5025165;28;20117;-69
2020/12/16 12:35:11;;;;;;;15.13;11.48;;;7.30;99.90;;;;;;5024979;28;20033;-69
2020/12/16 12:37:36;;;;;;;24.67;16.50;;;7.40;99.90;;;;;;5036399;28;20034;-69
2020/12/16 12:40:03;;;;;;;19.05;13.45;;;7.50;99.90;;;;;;5024773;28;20083;-69
2020/12/16 12:42:28;;;;;;;18.98;14.38;;;7.50;99.90;;;;;;5026860;28;20083;-69
2020/12/16 12:44:54;;;;;;;21.38;16.00;;;7.50;99.90;;;;;;5042692;28;20037;-69
2020/12/16 12:47:20;;;;;;;13.73;8.77;;;7.50;99.90;;;;;;5031589;28;20144;-69
2020/12/16 12:49:45;;;;;;;11.77;8.35;;;7.50;99.90;;;;;;5030278;28;20471;-69
2020/12/16 12:52:11;;;;;;;11.57;7.88;;;7.50;99.90;;;;;;5043523;28;20017;-71
2020/12/16 12:54:37;;;;;;;12.50;7.53;;;7.50;99.90;;;;;;5024080;28;20098;-69
2020/12/16 12:57:03;;;;;;;10.70;7.50;;;7.50;99.90;;;;;;5023690;28;20037;-69